createdAt,value
2023-04-27T00:00:14.475Z,16.42
2023-04-27T00:02:42.240Z,9.20
2023-04-27T00:05:11.339Z,12.15
2023-04-27T00:07:38.281Z,11.60
2023-04-27T00:10:05.352Z,10.38
2023-04-27T00:12:32.216Z,10.63
2023-04-27T00:14:59.024Z,11.07
2023-04-27T00:17:25.870Z,12.00
2023-04-27T00:19:53.461Z,17.80
2023-04-27T00:22:20.724Z,10.07
2023-04-27T00:24:47.529Z,10.80
2023-04-27T00:27:14.403Z,12.77
2023-04-27T00:29:42.952Z,11.38
2023-04-27T00:32:12.917Z,10.43
2023-04-27T00:34:40.951Z,17.30
2023-04-27T00:37:07.776Z,11.57
2023-04-27T00:39:35.057Z,16.95
2023-04-27T00:42:02.087Z,10.57
2023-04-27T00:44:28.955Z,10.40
2023-04-27T00:46:56.195Z,7.80
2023-04-27T00:49:24.246Z,11.80
2023-04-27T00:51:51.596Z,8.68
2023-04-27T00:54:20.967Z,11.45
2023-04-27T00:56:51.363Z,13.90
2023-04-27T00:59:19.836Z,10.45
2023-04-27T01:01:47.213Z,15.50
2023-04-27T01:04:14.144Z,10.90
2023-04-27T01:06:40.972Z,12.23
2023-04-27T01:09:08.313Z,15.90
2023-04-27T01:11:35.924Z,16.30
2023-04-27T01:14:06.966Z,14.88
2023-04-27T01:16:34.337Z,8.75
2023-04-27T01:19:01.588Z,14.68
2023-04-27T01:21:28.453Z,10.88
2023-04-27T01:23:55.510Z,9.35
2023-04-27T01:26:22.559Z,9.02
2023-04-27T01:28:49.698Z,9.57
2023-04-27T01:31:16.629Z,12.55
2023-04-27T01:33:43.464Z,13.50
2023-04-27T01:36:10.976Z,17.50
2023-04-27T01:38:37.753Z,11.20
2023-04-27T01:41:05.375Z,11.82
2023-04-27T01:43:32.368Z,9.43
2023-04-27T01:46:11.701Z,12.25
2023-04-27T01:48:40.750Z,10.88
2023-04-27T01:51:07.718Z,10.00
2023-04-27T01:53:34.627Z,13.80
2023-04-27T01:56:01.507Z,10.32
2023-04-27T01:58:28.389Z,7.13
2023-04-27T02:00:55.439Z,14.77
2023-04-27T02:03:22.559Z,11.98
2023-04-27T02:05:49.666Z,21.10
2023-04-27T02:08:16.550Z,13.13
2023-04-27T02:10:43.357Z,11.45
2023-04-27T02:13:10.175Z,10.13
2023-04-27T02:15:37.167Z,13.25
2023-04-27T02:18:04.647Z,7.60
2023-04-27T02:20:32.988Z,8.52
2023-04-27T02:23:01.030Z,9.98
2023-04-27T02:25:27.908Z,6.90
2023-04-27T02:27:55.160Z,14.48
2023-04-27T02:30:22.529Z,14.23
2023-04-27T02:32:50.157Z,13.45
2023-04-27T02:35:17.003Z,12.18
2023-04-27T02:37:43.880Z,13.05
2023-04-27T02:40:11.440Z,17.23
2023-04-27T02:42:40.963Z,8.57
2023-04-27T02:45:08.323Z,14.25
2023-04-27T02:47:35.648Z,11.77
2023-04-27T02:50:02.890Z,8.57
2023-04-27T02:52:29.666Z,17.73
2023-04-27T02:54:56.507Z,11.65
2023-04-27T02:57:23.279Z,10.20
2023-04-27T02:59:50.757Z,10.90
2023-04-27T03:02:17.676Z,18.42
2023-04-27T03:04:44.663Z,16.63
2023-04-27T03:07:12.926Z,12.98
2023-04-27T03:09:39.734Z,10.05
2023-04-27T03:12:06.478Z,14.95
2023-04-27T03:14:33.259Z,9.73
2023-04-27T03:17:01.066Z,9.02
2023-04-27T03:19:27.833Z,10.73
2023-04-27T03:21:54.566Z,20.63
2023-04-27T03:24:21.893Z,8.32
2023-04-27T03:26:48.718Z,13.10
2023-04-27T03:29:15.839Z,9.63
2023-04-27T03:31:42.746Z,21.15
2023-04-27T03:34:09.652Z,7.07
2023-04-27T03:36:36.512Z,19.58
2023-04-27T03:39:03.465Z,15.63
2023-04-27T03:41:30.218Z,12.40
2023-04-27T03:43:57.059Z,10.90
2023-04-27T03:46:23.870Z,10.60
2023-04-27T03:48:50.803Z,10.25
2023-04-27T03:51:18.399Z,10.15
2023-04-27T03:53:45.234Z,25.67
2023-04-27T03:56:12.077Z,13.02
2023-04-27T03:58:38.890Z,14.93
2023-04-27T04:01:06.370Z,10.10
2023-04-27T04:03:33.277Z,10.45
2023-04-27T04:06:00.158Z,10.13
2023-04-27T04:08:26.957Z,10.77
2023-04-27T04:10:53.701Z,19.92
2023-04-27T04:13:20.712Z,11.23
2023-04-27T04:15:47.606Z,10.23
2023-04-27T04:18:14.398Z,9.98
2023-04-27T04:20:41.696Z,12.77
2023-04-27T04:23:08.493Z,9.18
2023-04-27T04:25:35.268Z,8.60
2023-04-27T04:28:04.359Z,15.30
2023-04-27T04:30:31.119Z,9.25
2023-04-27T04:32:57.860Z,11.85
2023-04-27T04:35:24.647Z,8.38
2023-04-27T04:37:51.404Z,9.40
2023-04-27T04:40:18.349Z,14.55
2023-04-27T04:42:45.071Z,12.18
2023-04-27T04:45:11.926Z,12.73
2023-04-27T04:47:39.722Z,12.90
2023-04-27T04:50:07.396Z,12.80
2023-04-27T04:52:34.312Z,13.98
2023-04-27T04:55:01.201Z,16.65
2023-04-27T04:57:28.045Z,10.63
2023-04-27T04:59:54.869Z,12.95
2023-04-27T05:02:21.954Z,20.98
2023-04-27T05:04:48.939Z,11.55
2023-04-27T05:07:17.072Z,9.70
2023-04-27T05:09:46.447Z,14.68
2023-04-27T05:12:13.190Z,12.20
2023-04-27T05:14:39.933Z,13.50
2023-04-27T05:17:06.724Z,18.17
2023-04-27T05:19:33.473Z,13.13
2023-04-27T05:22:00.238Z,11.75
2023-04-27T05:24:27.022Z,10.55
2023-04-27T05:26:54.587Z,10.68
2023-04-27T05:29:22.249Z,12.77
2023-04-27T05:31:49.429Z,17.42
2023-04-27T05:34:16.758Z,9.32
2023-04-27T05:36:49.742Z,15.13
2023-04-27T05:39:16.724Z,18.73
2023-04-27T05:41:43.622Z,14.65
2023-04-27T05:44:10.363Z,10.80
2023-04-27T05:46:38.721Z,12.88
2023-04-27T05:49:05.932Z,13.73
2023-04-27T05:51:33.516Z,11.27
2023-04-27T05:54:01.888Z,11.07
2023-04-27T05:56:28.793Z,15.10
2023-04-27T05:58:55.626Z,10.20
2023-04-27T06:01:22.363Z,7.25
2023-04-27T06:03:49.235Z,10.32
2023-04-27T06:06:16.114Z,9.18
2023-04-27T06:08:42.941Z,19.90
2023-04-27T06:11:09.661Z,15.95
2023-04-27T06:13:36.397Z,14.85
2023-04-27T06:16:03.364Z,9.57
2023-04-27T06:18:30.478Z,13.15
2023-04-27T06:21:01.780Z,9.70
2023-04-27T06:23:29.025Z,16.42
2023-04-27T06:25:56.041Z,10.57
2023-04-27T06:28:22.827Z,12.40
2023-04-27T06:30:49.657Z,16.85
2023-04-27T06:33:16.733Z,9.52
2023-04-27T06:35:46.493Z,8.32
2023-04-27T06:38:14.094Z,11.55
2023-04-27T06:40:41.151Z,10.35
2023-04-27T06:43:07.891Z,11.90
2023-04-27T06:45:34.613Z,10.68
2023-04-27T06:48:01.571Z,14.07
2023-04-27T06:50:29.316Z,8.85
2023-04-27T06:52:56.288Z,14.93
2023-04-27T06:55:23.592Z,13.80
2023-04-27T06:57:50.354Z,16.38
2023-04-27T07:00:17.487Z,12.48
2023-04-27T07:02:44.265Z,8.30
2023-04-27T07:05:11.306Z,9.15
2023-04-27T07:07:38.150Z,16.45
2023-04-27T07:10:05.906Z,7.18
2023-04-27T07:12:32.844Z,18.15
2023-04-27T07:14:59.595Z,11.57
2023-04-27T07:17:26.340Z,11.18
2023-04-27T07:19:53.215Z,13.77
2023-04-27T07:22:20.154Z,6.63
2023-04-27T07:24:47.018Z,6.75
2023-04-27T07:27:15.117Z,9.63
2023-04-27T07:29:42.420Z,10.85
2023-04-27T07:32:09.612Z,9.77
2023-04-27T07:34:49.237Z,9.63
2023-04-27T07:37:19.789Z,8.10
2023-04-27T07:39:46.811Z,10.45
2023-04-27T07:42:13.612Z,6.15
2023-04-27T07:44:40.894Z,6.70
2023-04-27T07:47:08.036Z,24.33
2023-04-27T07:49:35.656Z,11.25
2023-04-27T07:52:02.766Z,6.13
2023-04-27T07:54:29.990Z,7.20
2023-04-27T07:56:57.366Z,14.32
2023-04-27T07:59:24.196Z,13.60
2023-04-27T08:01:51.207Z,10.77
2023-04-27T08:04:18.942Z,13.88
2023-04-27T08:06:47.001Z,9.88
2023-04-27T08:09:14.238Z,8.80
2023-04-27T08:11:41.288Z,14.18
2023-04-27T08:14:13.474Z,12.00
2023-04-27T08:16:44.090Z,10.23
2023-04-27T08:19:11.889Z,8.07
2023-04-27T08:21:39.112Z,12.63
2023-04-27T08:24:06.785Z,7.32
2023-04-27T08:26:35.265Z,8.88
2023-04-27T08:29:09.026Z,6.00
2023-04-27T08:31:42.532Z,4.35
2023-04-27T08:34:09.348Z,7.93
2023-04-27T08:36:36.104Z,3.53
2023-04-27T08:39:08.132Z,4.97
2023-04-27T08:41:35.091Z,5.20
2023-04-27T08:44:01.846Z,5.50
2023-04-27T08:46:28.862Z,4.03
2023-04-27T08:48:56.664Z,5.73
2023-04-27T08:51:25.547Z,4.45
2023-04-27T08:53:55.180Z,7.30
2023-04-27T08:56:25.048Z,6.07
2023-04-27T08:58:52.422Z,7.03
2023-04-27T09:01:19.774Z,12.68
2023-04-27T09:03:49.380Z,7.70
2023-04-27T09:06:16.657Z,11.97
2023-04-27T09:08:48.407Z,6.60
2023-04-27T09:11:16.870Z,10.48
2023-04-27T09:13:45.339Z,6.20
2023-04-27T09:16:15.437Z,5.87
2023-04-27T09:18:43.938Z,9.80
2023-04-27T09:21:10.936Z,9.90
2023-04-27T09:23:42.130Z,8.63
2023-04-27T09:26:09.223Z,8.93
2023-04-27T09:28:39.220Z,5.87
2023-04-27T09:31:09.112Z,3.43
2023-04-27T09:33:39.053Z,4.57
2023-04-27T09:36:06.872Z,7.73
2023-04-27T09:38:33.939Z,2.30
2023-04-27T09:41:01.177Z,4.73
2023-04-27T09:43:28.849Z,4.33
2023-04-27T09:45:59.192Z,2.43
2023-04-27T09:48:26.863Z,4.13
2023-04-27T09:50:53.853Z,4.70
2023-04-27T09:53:25.182Z,7.33
2023-04-27T09:56:01.230Z,6.70
2023-04-27T09:58:46.303Z,13.30
2023-04-27T10:01:37.267Z,10.53
2023-04-27T10:04:42.488Z,5.10
2023-04-27T10:07:12.968Z,7.60
2023-04-27T10:09:46.473Z,8.90
2023-04-27T10:12:26.808Z,12.87
2023-04-27T10:14:58.026Z,8.40
2023-04-27T10:17:36.523Z,3.17
2023-04-27T10:20:07.536Z,3.17
2023-04-27T10:34:15.746Z,1.07
2023-04-27T10:36:42.730Z,0.95
2023-04-27T10:39:25.604Z,1.33
2023-04-27T10:41:59.843Z,1.33
2023-04-27T10:44:28.762Z,3.13
2023-04-27T10:47:12.355Z,1.10
2023-04-27T10:49:39.388Z,2.80
2023-04-27T10:52:06.370Z,2.20
2023-04-27T10:54:33.726Z,1.73
2023-04-27T10:57:08.477Z,2.95
2023-04-27T10:59:47.912Z,1.97
2023-04-27T11:02:14.733Z,1.23
2023-04-27T11:04:42.312Z,1.40
2023-04-27T11:07:10.266Z,2.67
2023-04-27T11:09:38.545Z,2.57
2023-04-27T11:12:12.167Z,2.90
2023-04-27T11:14:38.988Z,2.57
2023-04-27T11:17:05.884Z,1.97
2023-04-27T11:19:33.440Z,2.80
2023-04-27T11:22:04.802Z,1.73
2023-04-27T11:24:31.647Z,3.47
2023-04-27T11:26:58.570Z,3.88
2023-04-27T11:29:25.313Z,5.90
2023-04-27T11:31:52.358Z,5.23
2023-04-27T11:34:24.085Z,5.37
2023-04-27T11:37:14.298Z,7.10
2023-04-27T11:39:45.970Z,7.47
2023-04-27T11:42:28.471Z,8.87
2023-04-27T11:45:01.121Z,3.30
2023-04-27T11:47:29.853Z,6.07
2023-04-27T11:49:58.939Z,4.00
2023-04-27T11:52:40.353Z,7.23
2023-04-27T11:55:09.299Z,5.47
2023-04-27T11:57:36.725Z,3.63
2023-04-27T12:00:12.074Z,2.60
2023-04-27T12:02:43.980Z,2.73
2023-04-27T12:05:13.803Z,4.40
2023-04-27T12:07:41.441Z,5.80
2023-04-27T12:10:09.031Z,2.73
2023-04-27T12:12:36.388Z,6.97
2023-04-27T12:15:03.423Z,3.40
2023-04-27T12:17:30.447Z,8.13
2023-04-27T12:19:57.324Z,5.60
2023-04-27T12:22:24.113Z,3.80
2023-04-27T12:24:51.505Z,3.73
2023-04-27T12:27:18.388Z,3.63
2023-04-27T12:29:45.106Z,5.77
2023-04-27T12:32:11.872Z,3.07
2023-04-27T12:34:39.491Z,1.70
2023-04-27T12:37:07.186Z,3.53
2023-04-27T12:39:34.323Z,6.70
2023-04-27T12:42:02.361Z,3.60
2023-04-27T12:44:29.284Z,1.47
2023-04-27T12:46:56.550Z,6.57
2023-04-27T12:49:23.387Z,3.33
2023-04-27T12:51:52.032Z,2.00
2023-04-27T12:54:18.987Z,4.40
2023-04-27T12:56:46.023Z,1.20
2023-04-27T12:59:12.914Z,4.10
2023-04-27T13:01:39.804Z,2.40
2023-04-27T13:04:07.621Z,3.23
2023-04-27T13:06:34.567Z,2.03
2023-04-27T13:09:01.462Z,3.77
2023-04-27T13:11:28.284Z,3.87
2023-04-27T13:13:55.271Z,1.77
2023-04-27T13:16:25.329Z,3.43
2023-04-27T13:18:53.582Z,1.23
2023-04-27T13:21:21.177Z,4.53
2023-04-27T13:23:48.339Z,6.00
2023-04-27T13:26:16.323Z,4.30
2023-04-27T13:28:43.331Z,4.17
2023-04-27T13:31:10.941Z,1.93
2023-04-27T13:33:42.581Z,5.30
2023-04-27T13:36:11.103Z,2.57
2023-04-27T13:38:37.864Z,3.23
2023-04-27T13:41:05.509Z,1.33
2023-04-27T13:43:32.644Z,2.20
2023-04-27T13:46:01.211Z,1.53
2023-04-27T13:48:29.119Z,1.70
2023-04-27T13:50:56.102Z,3.00
2023-04-27T13:53:26.003Z,3.67
2023-04-27T13:55:57.510Z,3.30
2023-04-27T13:58:26.313Z,2.77
2023-04-27T14:00:53.832Z,10.27
2023-04-27T14:03:21.719Z,4.30
2023-04-27T14:05:51.031Z,3.87
2023-04-27T14:08:18.720Z,3.90
2023-04-27T14:10:46.445Z,4.00
2023-04-27T14:13:13.573Z,4.87
2023-04-27T14:15:41.388Z,2.10
2023-04-27T14:18:09.915Z,3.20
2023-04-27T14:20:38.071Z,4.27
2023-04-27T14:23:06.211Z,3.00
2023-04-27T14:25:34.976Z,3.33
2023-04-27T14:28:04.420Z,1.40
2023-04-27T14:30:32.605Z,2.00
2023-04-27T14:32:59.639Z,2.20
2023-04-27T14:35:27.044Z,1.63
2023-04-27T14:37:53.981Z,1.87
2023-04-27T14:40:20.748Z,1.20
2023-04-27T14:42:47.524Z,6.00
2023-04-27T14:45:17.286Z,1.37
2023-04-27T14:47:44.062Z,4.43
2023-04-27T14:50:11.714Z,3.37
2023-04-27T14:52:38.809Z,2.00
2023-04-27T14:55:06.815Z,4.30
2023-04-27T14:57:33.727Z,2.00
2023-04-27T15:00:00.915Z,6.17
2023-04-27T15:02:27.786Z,5.97
2023-04-27T15:04:54.664Z,1.70
2023-04-27T15:07:21.500Z,2.83
2023-04-27T15:09:48.418Z,3.87
2023-04-27T15:12:15.461Z,3.37
2023-04-27T15:14:42.218Z,3.90
2023-04-27T15:17:08.988Z,1.93
2023-04-27T15:19:38.164Z,2.27
2023-04-27T15:22:04.895Z,8.03
2023-04-27T15:24:31.598Z,7.57
2023-04-27T15:26:58.574Z,2.07
2023-04-27T15:29:25.865Z,2.50
2023-04-27T15:31:53.158Z,3.43
2023-04-27T15:34:19.961Z,4.30
2023-04-27T15:36:46.751Z,5.57
2023-04-27T15:39:13.758Z,5.00
2023-04-27T15:41:41.060Z,2.23
2023-04-27T15:44:07.789Z,1.90
2023-04-27T15:46:34.707Z,3.60
2023-04-27T15:49:01.605Z,1.83
2023-04-27T15:51:28.503Z,2.73
2023-04-27T15:53:55.275Z,2.40
2023-04-27T15:56:22.316Z,2.93
2023-04-27T15:58:49.102Z,4.00
2023-04-27T16:01:16.071Z,2.63
2023-04-27T16:03:42.989Z,2.87
2023-04-27T16:06:09.893Z,1.90
2023-04-27T16:08:36.723Z,4.13
2023-04-27T16:11:03.545Z,2.97
2023-04-27T16:13:30.354Z,3.60
2023-04-27T16:15:57.183Z,2.23
2023-04-27T16:18:23.977Z,2.00
2023-04-27T16:20:50.938Z,2.60
2023-04-27T16:23:17.689Z,3.63
2023-04-27T16:25:44.434Z,2.53
2023-04-27T16:28:11.283Z,3.57
2023-04-27T16:30:38.983Z,2.83
2023-04-27T16:33:05.838Z,3.40
2023-04-27T16:35:33.585Z,3.93
2023-04-27T16:38:00.438Z,1.63
2023-04-27T16:40:27.390Z,6.07
2023-04-27T16:42:54.161Z,3.27
2023-04-27T16:45:21.131Z,3.20
2023-04-27T16:47:48.000Z,4.03
2023-04-27T16:50:14.886Z,6.20
2023-04-27T16:52:41.938Z,2.43
2023-04-27T16:55:09.263Z,2.90
2023-04-27T16:57:36.163Z,3.80
2023-04-27T17:00:05.859Z,3.27
2023-04-27T17:02:32.852Z,5.33
2023-04-27T17:05:00.788Z,7.30
2023-04-27T17:07:32.724Z,6.67
2023-04-27T17:09:59.797Z,8.50
2023-04-27T17:12:27.825Z,3.37
2023-04-27T17:14:54.676Z,3.20
2023-04-27T17:17:21.500Z,3.97
2023-04-27T17:19:48.355Z,3.43
2023-04-27T17:22:15.745Z,5.57
2023-04-27T17:24:42.498Z,4.30
2023-04-27T17:27:09.410Z,8.40
2023-04-27T17:29:36.378Z,2.73
2023-04-27T17:32:05.524Z,4.50
2023-04-27T17:34:32.469Z,4.47
2023-04-27T17:36:59.271Z,6.03
2023-04-27T17:39:26.225Z,3.30
2023-04-27T17:41:53.396Z,6.47
2023-04-27T17:44:20.444Z,3.87
2023-04-27T17:46:48.466Z,5.57
2023-04-27T17:49:16.961Z,6.50
2023-04-27T17:51:44.621Z,6.88
2023-04-27T17:54:12.262Z,6.33
2023-04-27T17:56:39.744Z,4.43
2023-04-27T17:59:10.378Z,3.53
2023-04-27T18:01:37.242Z,6.10
2023-04-27T18:04:06.648Z,3.53
2023-04-27T18:06:34.099Z,5.37
2023-04-27T18:09:01.297Z,5.80
2023-04-27T18:11:28.509Z,3.30
2023-04-27T18:13:55.781Z,10.30
2023-04-27T18:16:22.635Z,4.90
2023-04-27T18:18:49.602Z,4.30
2023-04-27T18:21:16.574Z,3.60
2023-04-27T18:23:44.424Z,5.77
2023-04-27T18:26:11.776Z,4.27
2023-04-27T18:28:40.224Z,10.03
2023-04-27T18:31:17.676Z,4.18
2023-04-27T18:33:46.104Z,4.85
2023-04-27T18:36:13.228Z,7.70
2023-04-27T18:38:40.018Z,8.35
2023-04-27T18:41:07.436Z,5.68
2023-04-27T18:43:36.674Z,6.20
2023-04-27T18:46:04.501Z,2.95
2023-04-27T18:48:32.386Z,9.13
2023-04-27T18:50:59.201Z,6.35
2023-04-27T18:53:27.798Z,4.45
2023-04-27T18:55:54.664Z,3.30
2023-04-27T18:58:21.550Z,4.50
2023-04-27T19:00:48.358Z,4.97
2023-04-27T19:03:15.747Z,10.75
2023-04-27T19:05:43.220Z,7.50
2023-04-27T19:08:10.342Z,8.20
2023-04-27T19:10:37.247Z,7.70
2023-04-27T19:13:04.122Z,6.00
2023-04-27T19:15:31.060Z,9.77
2023-04-27T19:18:02.799Z,8.60
2023-04-27T19:20:36.601Z,9.95
2023-04-27T19:23:03.586Z,11.10
2023-04-27T19:25:30.934Z,7.00
2023-04-27T19:27:57.731Z,13.43
2023-04-27T19:30:24.622Z,8.07
2023-04-27T19:32:51.544Z,6.97
2023-04-27T19:35:20.286Z,10.77
2023-04-27T19:37:47.120Z,8.43
2023-04-27T19:40:14.932Z,7.25
2023-04-27T19:42:41.788Z,7.13
2023-04-27T19:45:08.951Z,12.98
2023-04-27T19:47:36.288Z,7.70
2023-04-27T19:50:04.816Z,10.27
2023-04-27T19:52:31.798Z,7.07
2023-04-27T19:54:59.992Z,14.55
2023-04-27T19:57:26.770Z,8.40
2023-04-27T19:59:53.700Z,13.82
2023-04-27T20:02:20.773Z,14.35
2023-04-27T20:04:47.803Z,8.82
2023-04-27T20:07:17.498Z,12.75
2023-04-27T20:09:44.404Z,14.80
2023-04-27T20:12:23.684Z,8.70
2023-04-27T20:14:58.052Z,11.82
2023-04-27T20:17:26.171Z,9.07
2023-04-27T20:19:57.130Z,7.40
2023-04-27T20:22:24.105Z,11.48
2023-04-27T20:24:51.219Z,11.02
2023-04-27T20:27:18.056Z,10.05
2023-04-27T20:29:46.633Z,9.85
2023-04-27T20:32:13.633Z,11.73
2023-04-27T20:34:40.432Z,11.75
2023-04-27T20:37:07.590Z,12.05
2023-04-27T20:39:35.096Z,21.02
2023-04-27T20:42:02.085Z,17.90
2023-04-27T20:44:28.922Z,12.13
2023-04-27T20:46:55.814Z,13.15
2023-04-27T20:49:31.921Z,12.68
2023-04-27T20:52:01.707Z,16.83
2023-04-27T20:54:28.503Z,13.02
2023-04-27T20:56:55.291Z,14.90
2023-04-27T20:59:22.255Z,9.38
2023-04-27T21:01:49.240Z,9.88
2023-04-27T21:04:16.586Z,13.43
2023-04-27T21:06:43.634Z,15.73
2023-04-27T21:09:10.597Z,11.57
2023-04-27T21:11:37.432Z,13.82
2023-04-27T21:14:04.225Z,14.63
2023-04-27T21:16:31.106Z,11.70
2023-04-27T21:18:57.887Z,9.65
2023-04-27T21:21:26.499Z,9.93
2023-04-27T21:24:04.057Z,18.17
2023-04-27T21:26:34.348Z,13.70
2023-04-27T21:29:01.536Z,10.95
2023-04-27T21:31:28.551Z,12.48
2023-04-27T21:33:55.360Z,11.60
2023-04-27T21:36:22.147Z,19.17
2023-04-27T21:38:49.177Z,13.43
2023-04-27T21:41:17.405Z,15.43
2023-04-27T21:43:45.100Z,14.65
2023-04-27T21:46:12.091Z,16.15
2023-04-27T21:48:38.910Z,11.13
2023-04-27T21:51:05.787Z,14.90
2023-04-27T21:53:32.584Z,16.35
2023-04-27T21:55:59.867Z,11.10
2023-04-27T21:58:26.754Z,11.60
2023-04-27T22:00:53.731Z,11.32
2023-04-27T22:03:21.733Z,11.98
2023-04-27T22:05:49.119Z,10.80
2023-04-27T22:08:17.353Z,12.10
2023-04-27T22:10:45.158Z,17.25
2023-04-27T22:13:18.244Z,11.57
2023-04-27T22:15:46.499Z,11.25
2023-04-27T22:18:14.617Z,10.45
2023-04-27T22:20:41.724Z,12.23
2023-04-27T22:23:09.383Z,11.27
2023-04-27T22:25:36.439Z,10.05
2023-04-27T22:28:03.208Z,15.48
2023-04-27T22:30:30.392Z,13.77
2023-04-27T22:32:57.703Z,16.60
2023-04-27T22:35:27.697Z,21.58
2023-04-27T22:37:59.522Z,11.20
2023-04-27T22:40:26.537Z,17.90
2023-04-27T22:42:54.899Z,15.98
2023-04-27T22:45:22.799Z,9.63
2023-04-27T22:47:49.734Z,21.00
2023-04-27T22:50:16.747Z,12.27
2023-04-27T22:52:43.613Z,13.85
2023-04-27T22:55:11.608Z,13.18
2023-04-27T22:57:39.497Z,10.68
2023-04-27T23:00:08.997Z,14.20
2023-04-27T23:02:36.108Z,14.52
2023-04-27T23:05:03.797Z,12.88
2023-04-27T23:07:30.650Z,11.38
2023-04-27T23:09:57.430Z,16.85
2023-04-27T23:12:26.826Z,12.98
2023-04-27T23:14:53.605Z,13.77
2023-04-27T23:17:22.744Z,10.00
2023-04-27T23:19:50.296Z,11.32
2023-04-27T23:22:17.103Z,16.25
2023-04-27T23:24:43.882Z,11.52
2023-04-27T23:27:10.662Z,9.82
2023-04-27T23:29:37.489Z,13.00
2023-04-27T23:32:04.809Z,8.55
2023-04-27T23:34:32.883Z,14.77
2023-04-27T23:36:59.822Z,12.88
2023-04-27T23:39:28.224Z,11.02
2023-04-27T23:41:54.994Z,9.65
2023-04-27T23:44:22.165Z,14.18
2023-04-27T23:46:48.920Z,15.60
2023-04-27T23:49:15.908Z,15.15
2023-04-27T23:51:42.812Z,9.55
2023-04-27T23:54:09.594Z,12.57
2023-04-27T23:56:36.690Z,11.50
2023-04-27T23:59:03.615Z,9.13
